Time;durP1;ratioP1;P1;durP2;ratioP2;P2;SDS_P1;SDS_P2;PMS_P1;PMS_P2;Temp;Humidity;BMP_temperature;BMP_pressure;BME280_temperature;BME280_humidity;BME280_pressure;Samples;Min_cycle;Max_cycle;Signal;HPM_P1;HPM_P2
2022/03/11 00:00:42;;;;;;;11.17;7.20;;;7.60;49.30;;;;;;5024126;28;20527;-47
2022/03/11 00:03:13;;;;;;;11.83;7.57;;;7.60;49.30;;;;;;5024532;28;20959;-47
2022/03/11 00:05:40;;;;;;;10.17;7.57;;;7.60;49.30;;;;;;5042660;28;20558;-47
2022/03/11 00:08:07;;;;;;;9.63;7.40;;;7.60;49.40;;;;;;5032564;28;20471;-47
2022/03/11 00:10:34;;;;;;;8.07;6.90;;;7.60;49.50;;;;;;5027911;28;20479;-47
2022/03/11 00:13:01;;;;;;;10.43;6.80;;;7.60;49.60;;;;;;5024558;28;20516;-47
2022/03/11 00:15:28;;;;;;;11.70;8.03;;;7.70;49.60;;;;;;5028850;28;20452;-47
2022/03/11 00:17:55;;;;;;;11.80;7.30;;;7.70;49.70;;;;;;5022086;28;20488;-47
2022/03/11 00:20:22;;;;;;;15.80;7.70;;;7.70;49.60;;;;;;5009952;28;20458;-47
2022/03/11 00:22:50;;;;;;;10.87;7.70;;;7.70;49.70;;;;;;5028215;28;20466;-47
2022/03/11 00:25:19;;;;;;;8.90;7.40;;;7.60;49.90;;;;;;5028728;28;20558;-47
2022/03/11 00:27:46;;;;;;;12.23;7.67;;;7.50;50.30;;;;;;5011156;28;20507;-47
2022/03/11 00:30:14;;;;;;;9.87;7.17;;;7.50;50.40;;;;;;5023562;28;20455;-47
2022/03/11 00:32:41;;;;;;;11.03;7.57;;;7.50;50.40;;;;;;5016479;28;21225;-47
2022/03/11 00:35:09;;;;;;;10.00;7.40;;;7.60;50.50;;;;;;5022477;28;20472;-47
2022/03/11 00:37:36;;;;;;;15.17;8.30;;;7.50;50.50;;;;;;5013972;28;20456;-47
2022/03/11 00:40:04;;;;;;;9.50;7.40;;;7.50;50.60;;;;;;5023660;28;20465;-47
2022/03/11 00:42:31;;;;;;;12.50;8.90;;;7.50;50.70;;;;;;5014842;28;20459;-47
2022/03/11 00:44:58;;;;;;;10.37;7.20;;;7.50;50.90;;;;;;5027264;28;20461;-46
2022/03/11 00:47:26;;;;;;;11.07;7.60;;;7.40;51.00;;;;;;5026094;28;20471;-46
2022/03/11 00:49:53;;;;;;;10.80;8.47;;;7.40;51.10;;;;;;5028558;28;20472;-46
2022/03/11 00:52:19;;;;;;;10.83;8.10;;;7.40;51.20;;;;;;5026819;28;20461;-46
2022/03/11 00:54:46;;;;;;;8.50;7.63;;;7.40;51.20;;;;;;5025673;28;20470;-47
2022/03/11 00:57:13;;;;;;;11.23;8.40;;;7.40;51.30;;;;;;5022884;28;20546;-47
2022/03/11 00:59:39;;;;;;;10.67;6.97;;;7.40;51.30;;;;;;5038944;28;20491;-48
2022/03/11 01:02:06;;;;;;;11.47;7.40;;;7.40;51.40;;;;;;5028530;28;20558;-47
2022/03/11 01:04:33;;;;;;;11.60;8.70;;;7.40;51.50;;;;;;5027484;28;20566;-48
2022/03/11 01:07:00;;;;;;;14.80;9.33;;;7.40;51.50;;;;;;5026517;28;20474;-47
2022/03/11 01:09:27;;;;;;;10.47;7.73;;;7.40;51.50;;;;;;5031717;28;20960;-47
2022/03/11 01:11:53;;;;;;;11.57;7.20;;;7.40;51.60;;;;;;5029330;28;20470;-48
2022/03/11 01:14:20;;;;;;;11.83;8.87;;;7.30;51.70;;;;;;5024464;28;20460;-47
2022/03/11 01:16:47;;;;;;;11.57;7.53;;;7.30;51.80;;;;;;5025973;28;20464;-47
2022/03/11 01:19:14;;;;;;;9.60;7.13;;;7.30;52.00;;;;;;5032592;28;20948;-47
2022/03/11 01:21:41;;;;;;;12.00;8.80;;;7.30;52.20;;;;;;5039310;28;20462;-48
2022/03/11 01:24:07;;;;;;;14.90;8.50;;;7.30;52.10;;;;;;5025988;28;20463;-48
2022/03/11 01:26:34;;;;;;;9.17;8.23;;;7.30;52.20;;;;;;5022566;28;22278;-47
2022/03/11 01:29:01;;;;;;;12.03;7.87;;;7.30;52.20;;;;;;5025433;28;20472;-47
2022/03/11 01:31:28;;;;;;;10.93;8.70;;;7.30;52.30;;;;;;5022041;28;20480;-48
2022/03/11 01:33:55;;;;;;;12.63;9.00;;;7.30;52.30;;;;;;5024400;28;20459;-47
2022/03/11 01:36:22;;;;;;;10.40;8.40;;;7.30;52.30;;;;;;5024293;28;20473;-48
2022/03/11 01:38:49;;;;;;;10.73;8.50;;;7.20;52.40;;;;;;5026793;28;20594;-51
2022/03/11 01:41:16;;;;;;;11.80;8.30;;;7.20;52.60;;;;;;5023208;28;20949;-48
2022/03/11 01:44:10;;;;;;;11.30;8.13;;;7.20;52.50;;;;;;5023047;28;21002;-46
2022/03/11 01:46:37;;;;;;;13.33;9.60;;;7.30;52.50;;;;;;5024838;28;20512;-47
2022/03/11 01:49:07;;;;;;;10.57;8.50;;;7.20;52.60;;;;;;5023074;28;20516;-46
2022/03/11 01:51:37;;;;;;;15.80;8.97;;;7.20;52.60;;;;;;5023242;28;20463;-46
2022/03/11 01:54:05;;;;;;;15.27;8.70;;;7.20;52.50;;;;;;5021731;28;20506;-46
2022/03/11 01:56:33;;;;;;;12.90;9.00;;;7.20;52.50;;;;;;5023040;28;20506;-46
2022/03/11 01:59:00;;;;;;;16.73;9.40;;;7.20;52.60;;;;;;5028339;28;20521;-46
2022/03/11 02:01:27;;;;;;;14.13;8.60;;;7.30;52.60;;;;;;5029930;28;20514;-46
2022/03/11 02:03:54;;;;;;;14.30;9.87;;;7.20;52.60;;;;;;5022710;28;20459;-46
2022/03/11 02:06:22;;;;;;;15.30;8.90;;;7.20;52.60;;;;;;5024589;28;20466;-46
2022/03/11 02:08:49;;;;;;;16.20;9.87;;;7.20;52.70;;;;;;5025145;28;20843;-47
2022/03/11 02:11:16;;;;;;;15.17;9.43;;;7.20;52.60;;;;;;5042336;28;20487;-47
2022/03/11 02:13:49;;;;;;;11.87;8.77;;;7.20;52.60;;;;;;5004304;28;20467;-46
2022/03/11 02:16:21;;;;;;;14.73;9.40;;;7.10;52.60;;;;;;5029505;28;21014;-47
2022/03/11 02:18:49;;;;;;;16.10;12.27;;;7.10;52.80;;;;;;5035875;28;20495;-47
2022/03/11 02:21:17;;;;;;;17.53;11.20;;;7.20;52.70;;;;;;4997455;28;20492;-47
2022/03/11 02:23:44;;;;;;;10.97;9.00;;;7.10;52.70;;;;;;5027014;28;20531;-46
2022/03/11 02:26:12;;;;;;;13.80;9.60;;;7.10;52.80;;;;;;5024086;28;20463;-46
2022/03/11 02:28:39;;;;;;;16.30;10.40;;;7.00;53.00;;;;;;5011939;28;20467;-47
2022/03/11 02:31:06;;;;;;;12.77;10.03;;;7.00;53.10;;;;;;5022847;28;20591;-46
2022/03/11 02:33:33;;;;;;;14.23;9.77;;;6.90;53.30;;;;;;5023705;28;20471;-46
2022/03/11 02:36:00;;;;;;;15.23;10.53;;;6.90;53.30;;;;;;5024364;28;20523;-47
2022/03/11 02:38:27;;;;;;;16.43;9.60;;;6.90;53.30;;;;;;5029422;28;20498;-47
2022/03/11 02:40:54;;;;;;;15.27;9.73;;;6.80;53.50;;;;;;5014912;28;20467;-46
2022/03/11 02:43:22;;;;;;;13.57;9.30;;;6.80;53.70;;;;;;5032756;28;20470;-46
2022/03/11 02:45:49;;;;;;;12.33;8.77;;;6.80;53.60;;;;;;5029617;28;20464;-46
2022/03/11 02:48:17;;;;;;;11.50;9.43;;;6.80;53.70;;;;;;5031621;28;20518;-47
2022/03/11 02:50:44;;;;;;;14.40;10.97;;;6.80;53.70;;;;;;5031681;28;20467;-47
2022/03/11 02:53:11;;;;;;;15.17;10.13;;;6.70;53.90;;;;;;5032959;28;20461;-46
2022/03/11 02:55:38;;;;;;;12.83;10.43;;;6.80;53.80;;;;;;5031679;28;20571;-47
2022/03/11 02:58:06;;;;;;;14.33;10.00;;;6.70;53.80;;;;;;5030339;28;20464;-46
2022/03/11 03:00:32;;;;;;;13.53;10.00;;;6.70;53.90;;;;;;5032659;28;20456;-46
2022/03/11 03:02:59;;;;;;;12.27;9.03;;;6.70;54.10;;;;;;5033119;28;20465;-47
2022/03/11 03:05:26;;;;;;;16.30;10.60;;;6.70;54.00;;;;;;5030291;28;20464;-47
2022/03/11 03:07:53;;;;;;;13.93;10.40;;;6.70;54.10;;;;;;5034765;28;20473;-47
2022/03/11 03:10:21;;;;;;;15.50;9.80;;;6.70;54.20;;;;;;5017168;28;20705;-47
2022/03/11 03:12:47;;;;;;;13.57;9.90;;;6.70;54.10;;;;;;5028703;28;20459;-47
2022/03/11 03:15:14;;;;;;;13.13;9.70;;;6.70;54.10;;;;;;5030648;28;20471;-47
2022/03/11 03:17:42;;;;;;;18.20;10.10;;;6.70;54.20;;;;;;5031536;28;20567;-49
2022/03/11 03:20:09;;;;;;;20.30;12.20;;;6.70;54.20;;;;;;5020465;28;20506;-48
2022/03/11 03:22:36;;;;;;;11.87;9.60;;;6.60;54.30;;;;;;5029322;28;20469;-48
2022/03/11 03:25:03;;;;;;;18.53;10.90;;;6.50;54.50;;;;;;5023578;28;20473;-48
2022/03/11 03:27:30;;;;;;;14.50;10.60;;;6.50;54.60;;;;;;5026182;28;20997;-48
2022/03/11 03:29:57;;;;;;;21.53;10.63;;;6.60;54.60;;;;;;5026960;28;20459;-48
2022/03/11 03:32:24;;;;;;;15.70;10.50;;;6.50;54.70;;;;;;5026707;28;20979;-48
2022/03/11 03:34:50;;;;;;;16.30;10.33;;;6.40;55.00;;;;;;5041540;28;20460;-48
2022/03/11 03:37:17;;;;;;;20.53;12.10;;;6.40;55.00;;;;;;5028488;28;21014;-49
2022/03/11 03:39:44;;;;;;;15.80;10.40;;;6.40;55.10;;;;;;5025254;28;20710;-44
2022/03/11 03:42:11;;;;;;;15.03;10.57;;;6.50;55.00;;;;;;5018529;28;20459;-44
2022/03/11 03:44:38;;;;;;;16.37;10.90;;;6.40;55.10;;;;;;5034203;28;20460;-44
2022/03/11 03:47:05;;;;;;;16.10;11.43;;;6.40;55.10;;;;;;5003274;28;20501;-45
2022/03/11 03:49:32;;;;;;;19.50;12.23;;;6.40;55.20;;;;;;5016699;28;20518;-45
2022/03/11 03:51:59;;;;;;;16.20;11.10;;;6.40;55.30;;;;;;5022900;28;20478;-44
2022/03/11 03:54:31;;;;;;;17.20;11.33;;;6.40;55.20;;;;;;5015841;28;20522;-44
2022/03/11 03:56:58;;;;;;;16.63;11.57;;;6.40;55.30;;;;;;5019173;28;20475;-44
2022/03/11 03:59:24;;;;;;;19.00;12.20;;;6.30;55.30;;;;;;5015169;28;20490;-44
2022/03/11 04:01:51;;;;;;;17.37;11.80;;;6.30;55.40;;;;;;5005639;28;20959;-44
2022/03/11 04:04:18;;;;;;;18.60;12.60;;;6.30;55.50;;;;;;5008311;28;20478;-45
2022/03/11 04:06:45;;;;;;;17.33;12.10;;;6.30;55.60;;;;;;5019435;28;20454;-45
2022/03/11 04:09:12;;;;;;;18.27;12.00;;;6.20;55.60;;;;;;5018645;28;20470;-45
2022/03/11 04:11:40;;;;;;;19.17;11.57;;;6.20;55.70;;;;;;5019381;28;20472;-45
2022/03/11 04:14:08;;;;;;;15.43;11.63;;;6.20;55.70;;;;;;5018860;28;20464;-44
2022/03/11 04:16:36;;;;;;;20.77;11.73;;;6.20;56.00;;;;;;5022243;28;20467;-44
2022/03/11 04:19:03;;;;;;;18.37;12.93;;;6.20;56.00;;;;;;5003973;28;20480;-44
2022/03/11 04:21:30;;;;;;;18.13;12.33;;;6.20;56.00;;;;;;5019126;28;20452;-44
2022/03/11 04:23:58;;;;;;;20.80;14.47;;;6.10;56.00;;;;;;5017067;28;20453;-44
2022/03/11 04:26:25;;;;;;;16.23;11.70;;;6.10;56.00;;;;;;5018982;28;20457;-44
2022/03/11 04:28:52;;;;;;;18.47;12.57;;;6.10;56.00;;;;;;5022888;28;20466;-44
2022/03/11 04:31:19;;;;;;;18.63;12.90;;;6.10;56.00;;;;;;5024346;28;20968;-45
2022/03/11 04:33:46;;;;;;;16.27;11.60;;;6.00;56.10;;;;;;5030436;28;20488;-45
2022/03/11 04:36:13;;;;;;;17.77;12.97;;;6.00;56.40;;;;;;5019222;28;20471;-45
2022/03/11 04:38:40;;;;;;;18.73;13.20;;;6.00;56.50;;;;;;5016228;28;20551;-45
2022/03/11 04:41:07;;;;;;;21.97;13.70;;;6.00;56.70;;;;;;5001882;28;20462;-45
2022/03/11 04:43:33;;;;;;;19.50;14.13;;;6.00;56.90;;;;;;5021921;28;20486;-45
2022/03/11 04:46:01;;;;;;;17.93;13.43;;;6.00;57.00;;;;;;5018703;28;20808;-45
2022/03/11 04:48:28;;;;;;;19.63;14.30;;;5.90;56.90;;;;;;5023384;28;20464;-45
2022/03/11 04:50:56;;;;;;;25.57;13.57;;;5.90;56.80;;;;;;5016565;28;20911;-45
2022/03/11 04:53:23;;;;;;;20.20;14.50;;;5.80;57.00;;;;;;5019229;28;20459;-45
2022/03/11 04:55:49;;;;;;;22.33;13.80;;;5.90;57.20;;;;;;5016872;28;20562;-45
2022/03/11 04:58:16;;;;;;;18.47;13.30;;;5.80;57.10;;;;;;5017383;28;20524;-45
2022/03/11 05:00:43;;;;;;;21.10;15.80;;;5.80;56.90;;;;;;5014914;28;20480;-45
2022/03/11 05:03:10;;;;;;;20.13;14.03;;;5.80;56.90;;;;;;5019771;28;20517;-45
2022/03/11 05:05:37;;;;;;;19.77;13.90;;;5.80;57.20;;;;;;5016853;28;20539;-45
2022/03/11 05:08:04;;;;;;;19.53;14.07;;;5.70;56.90;;;;;;5023353;28;20462;-45
2022/03/11 05:10:31;;;;;;;22.17;13.90;;;5.70;57.30;;;;;;5014907;28;20463;-45
2022/03/11 05:12:57;;;;;;;26.27;16.23;;;5.70;57.00;;;;;;5018656;28;20834;-44
2022/03/11 05:15:24;;;;;;;22.80;14.80;;;5.70;56.90;;;;;;5019127;28;20747;-45
2022/03/11 05:17:51;;;;;;;21.20;14.20;;;5.60;56.70;;;;;;5018833;28;20942;-45
2022/03/11 05:20:19;;;;;;;19.90;13.70;;;5.60;57.00;;;;;;5003537;28;21056;-45
2022/03/11 05:22:46;;;;;;;20.37;13.30;;;5.60;56.60;;;;;;5018315;28;20539;-44
2022/03/11 05:25:13;;;;;;;20.80;13.23;;;5.50;56.50;;;;;;5015537;28;20466;-44
2022/03/11 05:27:40;;;;;;;18.53;13.43;;;5.50;56.80;;;;;;5003193;28;20543;-44
2022/03/11 05:30:08;;;;;;;17.60;12.53;;;5.50;57.10;;;;;;5032589;28;20995;-45
2022/03/11 05:32:46;;;;;;;21.13;13.97;;;5.50;56.80;;;;;;5013703;28;20491;-44
2022/03/11 05:35:15;;;;;;;21.30;14.13;;;5.40;56.80;;;;;;5017342;28;20491;-45
2022/03/11 05:37:42;;;;;;;21.77;12.90;;;5.40;57.00;;;;;;5016146;28;20952;-44
2022/03/11 05:40:09;;;;;;;20.33;12.37;;;5.40;56.50;;;;;;5019303;28;20940;-44
2022/03/11 05:42:36;;;;;;;26.23;13.90;;;5.30;56.80;;;;;;5000171;28;20535;-45
2022/03/11 05:45:03;;;;;;;19.17;13.80;;;5.30;56.90;;;;;;5016538;28;20807;-45
2022/03/11 05:47:30;;;;;;;22.50;13.37;;;5.20;57.10;;;;;;5004983;28;21391;-45
2022/03/11 05:49:57;;;;;;;18.80;13.20;;;5.30;56.80;;;;;;5014200;28;20964;-45
2022/03/11 05:52:25;;;;;;;22.33;14.47;;;5.20;56.50;;;;;;5016944;28;20836;-45
2022/03/11 05:54:53;;;;;;;21.30;13.70;;;5.20;56.60;;;;;;5017240;28;20467;-45
2022/03/11 05:57:20;;;;;;;23.70;14.20;;;5.20;56.60;;;;;;5014427;28;20750;-44
2022/03/11 05:59:47;;;;;;;22.87;14.73;;;5.20;56.50;;;;;;5015696;28;20492;-45
2022/03/11 06:02:13;;;;;;;21.80;13.13;;;5.10;56.20;;;;;;5019454;28;20467;-45
2022/03/11 06:04:41;;;;;;;19.73;13.17;;;5.10;56.30;;;;;;5004800;28;20460;-45
2022/03/11 06:07:08;;;;;;;20.50;14.33;;;5.10;56.30;;;;;;5019815;28;20797;-45
2022/03/11 06:09:34;;;;;;;16.97;14.10;;;5.10;56.20;;;;;;5018932;28;20451;-45
2022/03/11 06:12:01;;;;;;;15.50;12.50;;;5.10;56.20;;;;;;5014323;28;20490;-45
2022/03/11 06:14:28;;;;;;;20.33;13.73;;;5.10;56.30;;;;;;5016881;28;20511;-45
2022/03/11 06:16:58;;;;;;;17.80;12.83;;;5.10;56.10;;;;;;5019735;28;20468;-45
2022/03/11 06:19:24;;;;;;;17.97;13.40;;;5.10;55.90;;;;;;5016458;28;21018;-45
2022/03/11 06:21:51;;;;;;;20.03;13.90;;;5.10;55.80;;;;;;5000562;28;20467;-45
2022/03/11 06:24:18;;;;;;;21.93;13.60;;;5.10;55.60;;;;;;5017212;28;20460;-45
2022/03/11 06:26:44;;;;;;;24.43;13.83;;;5.10;55.70;;;;;;5018381;28;20969;-44
2022/03/11 06:29:12;;;;;;;25.20;13.80;;;5.10;56.10;;;;;;5012798;28;20456;-45
2022/03/11 06:31:40;;;;;;;25.80;13.80;;;5.10;55.60;;;;;;5014464;28;20497;-45
2022/03/11 06:34:07;;;;;;;19.33;14.53;;;5.10;55.20;;;;;;5017423;28;20478;-44
2022/03/11 06:36:34;;;;;;;16.10;13.00;;;5.10;55.10;;;;;;5017794;28;20453;-44
2022/03/11 06:39:01;;;;;;;17.90;12.70;;;5.10;55.50;;;;;;5011704;28;20558;-44
2022/03/11 06:41:28;;;;;;;20.50;13.20;;;5.10;55.30;;;;;;5015489;28;20519;-45
2022/03/11 06:43:57;;;;;;;19.40;14.03;;;5.10;54.80;;;;;;5014624;28;20555;-45
2022/03/11 06:46:24;;;;;;;22.13;13.93;;;5.10;54.80;;;;;;5013872;28;20484;-44
2022/03/11 06:48:51;;;;;;;18.10;12.73;;;5.10;54.90;;;;;;5016986;28;20460;-44
2022/03/11 06:51:18;;;;;;;23.70;13.47;;;5.20;54.90;;;;;;5013907;28;20555;-45
2022/03/11 06:53:44;;;;;;;24.83;13.20;;;5.10;54.70;;;;;;5014450;28;20462;-45
2022/03/11 06:56:11;;;;;;;25.07;13.57;;;5.10;54.50;;;;;;5017811;28;20461;-45
2022/03/11 06:58:38;;;;;;;14.93;11.73;;;5.10;54.30;;;;;;5019266;28;20559;-45
2022/03/11 07:01:05;;;;;;;19.33;13.27;;;5.10;54.00;;;;;;5015396;28;20523;-45
2022/03/11 07:03:32;;;;;;;15.93;12.60;;;5.10;53.90;;;;;;5006624;28;20453;-45
2022/03/11 07:05:59;;;;;;;18.97;12.13;;;5.20;53.90;;;;;;4999660;28;20519;-45
2022/03/11 07:08:28;;;;;;;19.07;12.30;;;5.10;53.70;;;;;;5015277;28;21005;-45
2022/03/11 07:10:54;;;;;;;20.97;11.50;;;5.10;53.70;;;;;;5018107;28;20459;-45
2022/03/11 07:13:21;;;;;;;16.50;11.60;;;5.20;53.50;;;;;;4997116;28;20901;-45
2022/03/11 07:15:49;;;;;;;19.73;11.53;;;5.10;53.20;;;;;;5013189;28;20993;-45
2022/03/11 07:18:16;;;;;;;23.57;13.67;;;5.20;53.20;;;;;;5020942;28;20505;-45
2022/03/11 07:20:43;;;;;;;17.70;12.53;;;5.20;53.00;;;;;;5020410;28;20601;-45
2022/03/11 07:23:26;;;;;;;17.30;11.43;;;5.20;52.60;;;;;;5018744;28;20471;-45
2022/03/11 07:25:53;;;;;;;16.10;11.00;;;5.30;53.00;;;;;;5018595;28;20468;-45
2022/03/11 07:28:20;;;;;;;17.77;11.67;;;5.30;51.90;;;;;;5010640;28;20463;-45
2022/03/11 07:30:48;;;;;;;17.20;10.07;;;5.30;51.90;;;;;;5018969;28;21020;-45
2022/03/11 07:33:14;;;;;;;22.67;12.10;;;5.30;51.70;;;;;;5018592;28;20464;-45
2022/03/11 07:35:41;;;;;;;17.30;11.17;;;5.30;51.20;;;;;;5025746;28;20466;-45
2022/03/11 07:38:08;;;;;;;19.07;11.23;;;5.30;51.40;;;;;;5021078;28;20981;-45
2022/03/11 07:40:35;;;;;;;14.57;11.23;;;5.40;51.40;;;;;;5030884;28;20494;-44
2022/03/11 07:43:02;;;;;;;14.40;10.77;;;5.50;51.00;;;;;;5024709;28;20724;-45
2022/03/11 07:45:29;;;;;;;16.53;11.50;;;5.50;50.70;;;;;;5019417;28;20463;-45
2022/03/11 07:47:56;;;;;;;17.70;11.60;;;5.50;50.30;;;;;;5019985;28;21006;-45
2022/03/11 07:50:23;;;;;;;18.37;11.13;;;5.50;50.00;;;;;;5015185;28;20490;-45
2022/03/11 07:52:49;;;;;;;14.30;10.70;;;5.60;50.00;;;;;;5021487;28;20875;-45
2022/03/11 07:55:17;;;;;;;14.03;10.73;;;5.60;49.40;;;;;;5018697;28;20455;-45
2022/03/11 07:57:43;;;;;;;14.93;9.90;;;5.70;49.10;;;;;;5016472;28;20546;-45
2022/03/11 08:00:11;;;;;;;17.80;10.27;;;5.70;49.30;;;;;;5017698;28;21018;-45
2022/03/11 08:02:39;;;;;;;12.87;9.47;;;5.80;48.60;;;;;;5017533;28;20464;-45
2022/03/11 08:05:14;;;;;;;18.27;9.83;;;5.80;48.70;;;;;;5002677;28;20464;-45
2022/03/11 08:07:52;;;;;;;18.10;11.03;;;5.90;48.90;;;;;;5016654;28;20467;-45
2022/03/11 08:10:19;;;;;;;13.83;9.40;;;6.10;48.50;;;;;;5035958;28;21037;-45
2022/03/11 08:12:48;;;;;;;13.70;9.60;;;6.20;48.30;;;;;;5032789;28;21264;-45
2022/03/11 08:15:16;;;;;;;13.97;9.20;;;6.40;47.40;;;;;;5021346;28;20708;-44
2022/03/11 08:17:43;;;;;;;14.57;9.90;;;6.50;46.80;;;;;;5020058;28;20468;-44
2022/03/11 08:20:10;;;;;;;13.70;10.50;;;6.60;47.00;;;;;;5018584;28;20502;-44
2022/03/11 08:22:37;;;;;;;18.63;11.17;;;6.80;47.30;;;;;;5001942;28;20968;-44
2022/03/11 08:25:05;;;;;;;14.37;8.97;;;6.90;46.00;;;;;;5008555;28;20908;-44
2022/03/11 08:27:32;;;;;;;13.40;10.17;;;7.10;45.50;;;;;;5021039;28;20559;-44
2022/03/11 08:29:59;;;;;;;13.30;10.07;;;7.20;45.20;;;;;;5021576;28;20953;-44
2022/03/11 08:32:28;;;;;;;13.93;10.03;;;7.30;45.30;;;;;;5021559;28;20537;-45
2022/03/11 08:34:55;;;;;;;17.10;10.03;;;7.40;44.70;;;;;;5002294;28;20502;-44
2022/03/11 08:37:27;;;;;;;14.30;10.03;;;7.60;44.50;;;;;;5016423;28;20595;-45
2022/03/11 08:39:58;;;;;;;14.90;9.30;;;7.80;44.10;;;;;;5017492;28;20491;-45
2022/03/11 08:42:26;;;;;;;15.73;9.50;;;7.90;44.00;;;;;;5005627;28;20798;-45
2022/03/11 08:44:52;;;;;;;15.97;9.37;;;8.10;43.50;;;;;;5017920;28;20455;-45
2022/03/11 08:47:19;;;;;;;12.10;9.27;;;8.20;43.10;;;;;;5004608;28;21050;-44
2022/03/11 08:49:46;;;;;;;12.80;9.07;;;8.40;42.60;;;;;;5015731;28;20468;-45
2022/03/11 08:52:13;;;;;;;14.10;9.77;;;8.50;42.60;;;;;;5018638;28;20495;-45
2022/03/11 08:54:39;;;;;;;13.90;10.30;;;8.60;42.40;;;;;;5014473;28;20475;-45
2022/03/11 08:57:06;;;;;;;11.60;9.20;;;8.80;42.30;;;;;;5014570;28;20833;-45
2022/03/11 08:59:34;;;;;;;11.90;8.20;;;8.90;41.70;;;;;;5035429;28;20456;-45
2022/03/11 09:02:01;;;;;;;14.67;9.53;;;9.00;41.30;;;;;;5020886;28;20574;-45
2022/03/11 09:04:28;;;;;;;14.40;10.47;;;9.00;40.90;;;;;;5016618;28;20468;-45
2022/03/11 09:06:55;;;;;;;15.43;10.43;;;9.00;40.80;;;;;;5018901;28;20884;-45
2022/03/11 09:09:22;;;;;;;12.80;9.20;;;9.00;40.90;;;;;;4997134;28;20462;-45
2022/03/11 09:11:49;;;;;;;10.43;9.00;;;8.90;41.20;;;;;;5001146;28;20466;-45
2022/03/11 09:14:16;;;;;;;11.60;10.03;;;8.90;41.40;;;;;;5008265;28;20475;-45
2022/03/11 09:16:43;;;;;;;14.10;9.80;;;8.90;41.10;;;;;;5027541;28;20837;-45
2022/03/11 09:19:10;;;;;;;14.87;9.50;;;9.00;41.10;;;;;;5034687;28;20867;-45
2022/03/11 09:21:40;;;;;;;12.90;9.93;;;9.00;40.90;;;;;;5024020;28;20544;-45
2022/03/11 09:24:07;;;;;;;11.30;8.60;;;9.00;41.30;;;;;;5018758;28;20459;-44
2022/03/11 09:26:33;;;;;;;14.93;9.30;;;8.90;40.60;;;;;;5018132;28;20539;-44
2022/03/11 09:29:19;;;;;;;13.37;9.10;;;8.90;41.00;;;;;;5019655;28;21051;-45
2022/03/11 09:31:46;;;;;;;12.60;8.73;;;8.80;41.00;;;;;;5023010;28;20478;-45
2022/03/11 09:34:12;;;;;;;12.60;8.90;;;8.80;41.30;;;;;;5018264;28;20539;-45
2022/03/11 09:36:39;;;;;;;16.70;10.00;;;8.80;41.40;;;;;;5023912;28;20468;-45
2022/03/11 09:39:06;;;;;;;23.40;10.10;;;8.90;41.30;;;;;;5027515;28;20464;-44
2022/03/11 09:41:33;;;;;;;15.57;9.67;;;9.00;41.20;;;;;;5013779;28;20488;-44
2022/03/11 09:44:02;;;;;;;14.27;9.50;;;9.00;40.80;;;;;;5016341;28;20965;-45
2022/03/11 09:46:30;;;;;;;11.73;9.20;;;9.10;40.90;;;;;;5015877;28;20560;-45
2022/03/11 09:48:57;;;;;;;12.33;9.00;;;9.20;41.00;;;;;;5017537;28;20461;-45
2022/03/11 09:51:28;;;;;;;13.57;9.30;;;9.40;40.80;;;;;;5020932;28;20832;-44
2022/03/11 09:53:56;;;;;;;18.77;9.70;;;9.50;40.50;;;;;;5014660;28;20550;-44
2022/03/11 09:56:24;;;;;;;16.03;10.47;;;9.70;40.00;;;;;;5016863;28;20452;-45
2022/03/11 09:58:51;;;;;;;15.90;10.03;;;9.90;39.80;;;;;;5016761;28;20476;-45
2022/03/11 10:01:17;;;;;;;19.83;9.97;;;10.10;40.30;;;;;;5015478;28;20491;-46
2022/03/11 10:03:45;;;;;;;12.23;9.73;;;10.30;39.30;;;;;;5018031;28;20998;-45
2022/03/11 10:06:11;;;;;;;13.83;10.50;;;10.60;39.30;;;;;;5018027;28;20471;-46
2022/03/11 10:08:42;;;;;;;12.03;8.83;;;10.80;39.10;;;;;;5018396;28;20468;-46
2022/03/11 10:11:35;;;;;;;12.43;8.93;;;11.00;38.20;;;;;;5000436;28;20557;-45
2022/03/11 10:14:09;;;;;;;12.77;9.90;;;11.20;38.00;;;;;;5012034;28;20479;-45
2022/03/11 10:16:37;;;;;;;13.23;9.70;;;11.30;37.10;;;;;;5013368;28;20468;-45
2022/03/11 10:19:08;;;;;;;18.63;9.57;;;11.50;36.80;;;;;;5003639;28;20821;-45
2022/03/11 10:21:39;;;;;;;15.80;10.00;;;11.70;36.50;;;;;;5016385;28;20712;-45
2022/03/11 10:24:09;;;;;;;13.13;9.10;;;11.80;36.50;;;;;;5017141;28;20455;-45
2022/03/11 10:26:50;;;;;;;12.90;9.43;;;12.00;36.20;;;;;;5005824;28;20770;-45
2022/03/11 10:29:20;;;;;;;19.03;10.40;;;12.30;35.80;;;;;;5030654;28;20468;-45
2022/03/11 10:31:50;;;;;;;17.97;10.63;;;12.60;35.60;;;;;;5021510;28;20886;-44
2022/03/11 10:34:17;;;;;;;13.83;9.63;;;12.90;35.00;;;;;;5013188;28;20543;-45
2022/03/11 10:36:55;;;;;;;12.93;9.33;;;13.10;34.40;;;;;;5014969;28;20460;-45
2022/03/11 10:39:23;;;;;;;14.67;11.57;;;13.30;34.30;;;;;;5011906;28;20538;-45
2022/03/11 10:41:50;;;;;;;14.83;9.40;;;13.70;34.10;;;;;;5031480;28;20843;-45
2022/03/11 10:44:21;;;;;;;13.07;9.60;;;14.00;34.60;;;;;;5018884;28;20456;-45
2022/03/11 10:46:49;;;;;;;14.00;10.70;;;14.30;34.40;;;;;;5016158;28;20544;-45
2022/03/11 10:49:31;;;;;;;15.93;10.63;;;14.40;33.20;;;;;;5015600;28;20460;-45
2022/03/11 10:52:00;;;;;;;15.43;10.50;;;14.40;32.40;;;;;;5032823;28;20459;-45
2022/03/11 10:54:28;;;;;;;13.70;10.10;;;14.30;32.70;;;;;;5017246;28;20511;-45
2022/03/11 10:57:09;;;;;;;12.43;9.07;;;14.30;32.60;;;;;;4993285;28;20463;-45
2022/03/11 10:59:36;;;;;;;11.07;9.13;;;14.30;32.80;;;;;;5014713;28;21334;-45
2022/03/11 11:02:03;;;;;;;20.87;10.00;;;14.50;33.80;;;;;;5017541;28;20484;-45
2022/03/11 11:04:32;;;;;;;13.90;10.00;;;14.60;33.30;;;;;;5023009;28;20509;-45
2022/03/11 11:06:59;;;;;;;14.03;10.83;;;14.70;32.40;;;;;;5023030;28;20939;-45
2022/03/11 11:09:26;;;;;;;12.57;10.90;;;14.70;32.50;;;;;;5036680;28;20464;-45
2022/03/11 11:11:53;;;;;;;12.33;10.20;;;14.70;32.00;;;;;;5018882;28;20471;-45
2022/03/11 11:14:19;;;;;;;13.97;11.40;;;14.80;32.90;;;;;;5015986;28;20463;-45
2022/03/11 11:16:48;;;;;;;13.50;9.63;;;15.00;32.70;;;;;;5016988;28;20489;-45
2022/03/11 11:19:19;;;;;;;16.60;11.30;;;15.20;32.20;;;;;;5016133;28;20454;-45
2022/03/11 11:21:49;;;;;;;12.97;10.30;;;15.20;32.00;;;;;;5019354;28;20579;-45
2022/03/11 11:24:19;;;;;;;15.10;10.27;;;15.30;31.80;;;;;;5005598;28;20480;-45
2022/03/11 11:26:53;;;;;;;14.77;11.50;;;15.40;32.80;;;;;;4990959;28;20558;-45
2022/03/11 11:29:25;;;;;;;14.43;10.87;;;15.50;31.90;;;;;;5022487;28;21020;-44
2022/03/11 11:31:53;;;;;;;17.33;11.20;;;15.60;31.70;;;;;;5020964;28;20480;-45
2022/03/11 11:34:27;;;;;;;18.90;13.50;;;15.70;31.00;;;;;;5001216;28;20463;-45
2022/03/11 11:36:54;;;;;;;15.33;10.70;;;15.50;31.30;;;;;;5001690;28;20499;-45
2022/03/11 11:39:25;;;;;;;13.50;9.53;;;15.50;32.10;;;;;;5019178;28;20511;-45
2022/03/11 11:42:00;;;;;;;15.23;10.10;;;15.40;31.30;;;;;;5022320;28;20578;-45
2022/03/11 11:44:35;;;;;;;11.83;10.60;;;15.20;31.80;;;;;;5017774;28;20884;-45
2022/03/11 11:47:11;;;;;;;12.13;10.00;;;15.10;32.10;;;;;;5023094;28;20477;-45
2022/03/11 11:49:44;;;;;;;13.47;9.90;;;14.90;32.40;;;;;;5015575;28;20475;-45
2022/03/11 11:52:26;;;;;;;12.97;9.83;;;14.80;32.10;;;;;;5020483;28;20462;-45
2022/03/11 11:54:52;;;;;;;13.67;10.40;;;14.60;32.60;;;;;;5016823;28;20532;-45
2022/03/11 11:57:23;;;;;;;17.27;9.90;;;14.60;33.10;;;;;;5020021;28;20483;-45
2022/03/11 11:59:50;;;;;;;12.43;10.10;;;14.40;33.30;;;;;;5019807;28;20499;-44
2022/03/11 12:02:25;;;;;;;10.83;9.63;;;14.40;33.20;;;;;;5017797;28;20528;-44
2022/03/11 12:04:52;;;;;;;16.33;10.83;;;14.30;34.20;;;;;;5014838;28;20573;-44
2022/03/11 12:07:22;;;;;;;14.40;10.20;;;14.30;33.90;;;;;;5021574;28;20475;-45
2022/03/11 12:12:25;;;;;;;11.17;9.97;;;14.40;35.10;;;;;;5022331;28;21252;-45
2022/03/11 12:15:01;;;;;;;11.77;10.30;;;14.30;34.50;;;;;;5022884;28;20964;-45
2022/03/11 12:17:50;;;;;;;12.50;10.27;;;14.30;33.80;;;;;;5019973;28;20590;-44
2022/03/11 12:20:33;;;;;;;16.30;10.40;;;14.20;33.70;;;;;;5004035;28;20872;-45
2022/03/11 12:23:01;;;;;;;16.93;10.30;;;14.10;33.60;;;;;;5017649;28;20586;-45
2022/03/11 12:25:30;;;;;;;11.93;10.40;;;14.00;33.80;;;;;;5019238;28;20467;-44
2022/03/11 12:28:07;;;;;;;12.60;10.43;;;13.90;33.90;;;;;;5020311;28;20535;-44
2022/03/11 12:30:38;;;;;;;12.73;10.43;;;13.90;34.60;;;;;;5018504;28;20543;-44
2022/03/11 12:33:20;;;;;;;13.67;10.53;;;13.90;34.30;;;;;;5018775;28;20460;-44
2022/03/11 12:35:48;;;;;;;11.23;9.40;;;14.00;34.20;;;;;;5018107;28;20464;-45
2022/03/11 12:38:18;;;;;;;11.27;9.23;;;14.10;34.30;;;;;;5016302;28;20478;-45
2022/03/11 12:40:46;;;;;;;13.50;10.63;;;14.10;34.10;;;;;;5013177;28;20490;-44
2022/03/11 12:43:15;;;;;;;12.77;9.10;;;14.10;34.20;;;;;;5032589;28;20983;-45
2022/03/11 12:45:51;;;;;;;14.93;10.43;;;14.10;34.70;;;;;;5017849;28;20452;-45